createdAt,value
2022-10-04T00:01:14.564Z,8.20
2022-10-04T00:06:24.343Z,12.27
2022-10-04T00:11:36.620Z,10.63
2022-10-04T00:16:44.822Z,13.00
2022-10-04T00:27:08.569Z,12.20
2022-10-04T00:32:20.381Z,9.67
2022-10-04T00:37:28.620Z,8.93
2022-10-04T00:42:39.724Z,12.97
2022-10-04T00:47:51.754Z,13.30
2022-10-04T00:53:00.446Z,11.43
2022-10-04T00:58:12.872Z,11.50
2022-10-04T01:03:25.244Z,8.43
2022-10-04T01:08:36.527Z,15.47
2022-10-04T01:13:47.449Z,13.33
2022-10-04T01:18:56.303Z,19.53
2022-10-04T01:29:20.692Z,17.90
2022-10-04T01:34:30.304Z,12.30
2022-10-04T01:39:38.320Z,15.23
2022-10-04T01:44:50.024Z,10.07
2022-10-04T01:49:59.671Z,13.67
2022-10-04T01:55:18.282Z,10.83
2022-10-04T02:00:27.043Z,13.43
2022-10-04T02:05:37.867Z,18.77
2022-10-04T02:10:46.829Z,11.57
2022-10-04T02:15:54.739Z,9.70
2022-10-04T02:21:02.779Z,12.00
2022-10-04T02:26:11.809Z,17.20
2022-10-04T02:31:24.234Z,16.37
2022-10-04T02:36:33.399Z,16.70
2022-10-04T02:41:44.758Z,13.07
2022-10-04T02:46:55.764Z,14.60
2022-10-04T02:52:06.546Z,10.00
2022-10-04T02:57:16.692Z,11.70
2022-10-04T03:02:30.083Z,18.73
2022-10-04T03:07:39.254Z,18.30
2022-10-04T03:12:48.903Z,10.37
2022-10-04T03:17:58.665Z,15.37
2022-10-04T03:23:07.215Z,12.17
2022-10-04T03:28:15.172Z,21.87
2022-10-04T03:33:25.429Z,13.93
2022-10-04T03:38:33.741Z,13.27
2022-10-04T03:43:44.549Z,16.83
2022-10-04T03:48:53.950Z,12.90
2022-10-04T03:54:02.444Z,8.33
2022-10-04T03:59:11.791Z,8.07
2022-10-04T04:04:23.038Z,19.50
2022-10-04T04:09:34.568Z,10.97
2022-10-04T04:14:43.283Z,11.70
2022-10-04T04:19:51.259Z,17.43
2022-10-04T04:25:01.859Z,15.17
2022-10-04T04:30:10.123Z,12.87
2022-10-04T04:35:21.277Z,18.70
2022-10-04T04:40:29.657Z,16.03
2022-10-04T04:45:37.640Z,28.53
2022-10-04T04:50:47.643Z,18.70
2022-10-04T04:56:04.181Z,20.30
2022-10-04T05:01:12.431Z,14.77
2022-10-04T05:06:23.336Z,14.00
2022-10-04T05:11:33.341Z,18.33
2022-10-04T05:16:44.440Z,15.50
2022-10-04T05:21:53.976Z,14.00
2022-10-04T05:27:05.000Z,14.10
2022-10-04T05:37:28.928Z,13.33
2022-10-04T05:42:42.263Z,14.83
2022-10-04T05:47:51.754Z,12.07
2022-10-04T05:53:02.829Z,17.40
2022-10-04T05:58:16.304Z,17.53
2022-10-04T06:03:27.252Z,12.70
2022-10-04T06:08:38.831Z,10.07
2022-10-04T06:13:52.722Z,11.80
2022-10-04T06:19:04.400Z,14.57
2022-10-04T06:24:14.846Z,13.60
2022-10-04T06:29:25.629Z,16.27
2022-10-04T06:34:36.686Z,10.30
2022-10-04T06:39:48.285Z,16.83
2022-10-04T06:50:15.909Z,14.30
2022-10-04T06:55:27.328Z,13.27
2022-10-04T07:00:37.057Z,14.53
2022-10-04T07:05:48.239Z,10.93
2022-10-04T07:10:57.595Z,16.23
2022-10-04T07:16:08.633Z,14.40
2022-10-04T07:21:18.383Z,10.90
2022-10-04T07:26:30.331Z,10.80
2022-10-04T07:31:38.459Z,9.27
2022-10-04T07:36:49.455Z,14.47
2022-10-04T07:42:01.674Z,10.47
2022-10-04T07:47:12.763Z,11.87
2022-10-04T07:52:23.917Z,10.60
2022-10-04T07:57:35.019Z,9.57
2022-10-04T08:02:47.139Z,7.90
2022-10-04T08:13:32.490Z,8.20
2022-10-04T08:18:44.266Z,15.97
2022-10-04T08:23:56.166Z,7.47
2022-10-04T08:29:08.911Z,7.40
2022-10-04T08:34:21.645Z,7.47
2022-10-04T08:39:33.870Z,8.97
2022-10-04T08:44:47.188Z,7.63
2022-10-04T08:49:58.344Z,6.83
2022-10-04T08:55:11.421Z,8.50
2022-10-04T09:00:24.761Z,8.33
2022-10-04T09:05:35.823Z,6.70
2022-10-04T09:10:47.295Z,5.67
2022-10-04T09:15:57.636Z,5.50
2022-10-04T09:21:08.768Z,2.83
2022-10-04T09:26:20.408Z,6.97
2022-10-04T09:36:53.157Z,4.57
2022-10-04T09:42:04.441Z,5.83
2022-10-04T09:47:17.447Z,8.77
2022-10-04T09:52:28.943Z,5.70
2022-10-04T09:57:40.160Z,11.40
2022-10-04T10:02:50.731Z,7.63
2022-10-04T10:08:01.660Z,7.30
2022-10-04T10:13:14.170Z,9.93
2022-10-04T10:18:27.121Z,6.33
2022-10-04T10:23:38.381Z,3.63
2022-10-04T10:28:49.803Z,5.07
2022-10-04T10:34:01.007Z,8.87
2022-10-04T10:39:12.539Z,6.37
2022-10-04T10:44:25.159Z,4.37
2022-10-04T10:49:36.739Z,6.80
2022-10-04T10:54:47.820Z,6.97
2022-10-04T10:59:59.760Z,3.23
2022-10-04T11:05:11.136Z,7.07
2022-10-04T11:10:23.193Z,7.17
2022-10-04T11:15:34.228Z,5.13
2022-10-04T11:20:45.189Z,5.33
2022-10-04T11:25:56.636Z,6.37
2022-10-04T11:31:08.987Z,7.33
2022-10-04T11:36:20.275Z,6.73
2022-10-04T11:41:31.960Z,6.60
2022-10-04T11:46:43.963Z,5.37
2022-10-04T11:52:01.205Z,4.60
2022-10-04T11:57:09.087Z,2.47
2022-10-04T12:02:20.893Z,4.13
2022-10-04T12:07:34.749Z,5.27
2022-10-04T12:12:47.476Z,3.43
2022-10-04T12:17:58.982Z,4.97
2022-10-04T12:23:09.896Z,6.77
2022-10-04T12:28:21.246Z,5.23
2022-10-04T12:33:32.150Z,5.70
2022-10-04T12:38:43.644Z,5.47
2022-10-04T12:43:56.799Z,4.20
2022-10-04T12:49:09.054Z,4.50
2022-10-04T12:54:20.477Z,6.13
2022-10-04T12:59:32.891Z,4.50
2022-10-04T13:04:44.147Z,7.17
2022-10-04T13:10:22.513Z,4.50
2022-10-04T13:15:09.368Z,2.90
2022-10-04T13:20:20.259Z,3.87
2022-10-04T13:25:33.059Z,2.37
2022-10-04T13:30:43.940Z,2.40
2022-10-04T13:41:10.839Z,5.87
2022-10-04T13:46:22.430Z,3.97
2022-10-04T13:51:33.421Z,6.00
2022-10-04T13:56:46.389Z,4.87
2022-10-04T14:07:13.035Z,4.47
2022-10-04T14:12:26.091Z,5.50
2022-10-04T14:17:38.582Z,3.97
2022-10-04T14:22:50.696Z,4.20
2022-10-04T14:28:02.097Z,1.93
2022-10-04T14:33:13.638Z,6.10
2022-10-04T14:38:27.106Z,3.03
2022-10-04T14:43:38.083Z,2.50
2022-10-04T14:48:49.228Z,3.97
2022-10-04T14:54:01.620Z,4.77
2022-10-04T14:59:12.967Z,4.10
2022-10-04T15:09:38.907Z,1.70
2022-10-04T15:14:50.838Z,4.23
2022-10-04T15:20:02.602Z,3.63
2022-10-04T15:25:13.936Z,3.93
2022-10-04T15:30:24.911Z,5.17
2022-10-04T15:35:37.001Z,3.43
2022-10-04T15:40:48.050Z,4.27
2022-10-04T15:46:03.316Z,3.63
2022-10-04T15:51:14.013Z,5.47
2022-10-04T16:01:39.072Z,5.10
2022-10-04T16:06:51.857Z,7.30
2022-10-04T16:12:04.855Z,5.93
2022-10-04T16:17:18.102Z,5.03
2022-10-04T16:22:29.438Z,7.77
2022-10-04T16:27:41.062Z,7.33
2022-10-04T16:32:53.830Z,4.90
2022-10-04T16:38:05.463Z,11.57
2022-10-04T16:43:17.645Z,11.50
2022-10-04T16:48:29.111Z,9.80
2022-10-04T16:53:40.265Z,9.67
2022-10-04T16:58:51.437Z,13.17
2022-10-04T17:04:02.556Z,15.30
2022-10-04T17:09:16.532Z,12.03
2022-10-04T17:14:29.766Z,11.67
2022-10-04T17:19:43.170Z,13.57
2022-10-04T17:24:54.514Z,13.67
2022-10-04T17:30:05.720Z,12.50
2022-10-04T17:35:18.781Z,20.33
2022-10-04T17:40:30.189Z,16.63
2022-10-04T17:50:56.552Z,13.47
2022-10-04T17:56:04.683Z,14.50
2022-10-04T18:01:15.567Z,16.73
2022-10-04T18:06:28.230Z,26.23
2022-10-04T18:11:39.582Z,23.63
2022-10-04T18:22:15.256Z,23.57
2022-10-04T18:27:25.007Z,24.33
2022-10-04T18:32:34.400Z,18.43
2022-10-04T18:37:43.311Z,19.03
2022-10-04T18:42:56.912Z,19.23
2022-10-04T18:48:08.772Z,27.40
2022-10-04T18:53:21.609Z,21.60
2022-10-04T18:58:34.686Z,29.33
2022-10-04T19:03:46.226Z,26.50
2022-10-04T19:08:59.271Z,31.33
2022-10-04T19:14:14.776Z,36.57
2022-10-04T19:24:43.302Z,36.60
2022-10-04T19:29:54.801Z,35.73
2022-10-04T19:35:06.377Z,28.77
2022-10-04T19:40:17.017Z,32.47
2022-10-04T19:45:30.934Z,35.67
2022-10-04T19:55:56.695Z,35.93
2022-10-04T20:01:07.966Z,38.23
2022-10-04T20:06:19.048Z,31.43
2022-10-04T20:11:30.859Z,42.93
2022-10-04T20:16:42.992Z,39.53
2022-10-04T20:21:51.317Z,34.30
2022-10-04T20:27:00.825Z,39.13
2022-10-04T20:32:09.608Z,37.57
2022-10-04T20:37:19.373Z,35.37
2022-10-04T20:42:32.270Z,36.13
2022-10-04T20:47:43.574Z,37.27
2022-10-04T20:52:53.888Z,41.57
2022-10-04T20:58:04.337Z,30.67
2022-10-04T21:03:17.878Z,37.07
2022-10-04T21:08:26.622Z,37.40
2022-10-04T21:13:38.674Z,36.47
2022-10-04T21:18:57.208Z,39.33
2022-10-04T21:24:08.400Z,33.43
2022-10-04T21:29:17.146Z,37.03
2022-10-04T21:34:48.626Z,31.37
2022-10-04T21:39:37.581Z,29.93
2022-10-04T21:44:45.608Z,23.47
2022-10-04T21:49:55.270Z,26.43
2022-10-04T21:55:03.171Z,22.33
2022-10-04T22:00:12.785Z,24.33
2022-10-04T22:05:20.927Z,25.03
2022-10-04T22:10:28.933Z,25.80
2022-10-04T22:15:37.932Z,26.43
2022-10-04T22:20:45.852Z,24.77
2022-10-04T22:25:54.074Z,27.37
2022-10-04T22:31:01.939Z,25.87
2022-10-04T22:36:13.018Z,24.33
2022-10-04T22:41:21.876Z,20.77
2022-10-04T22:46:33.727Z,23.17
2022-10-04T22:51:42.160Z,21.80
2022-10-04T22:56:50.142Z,26.97
2022-10-04T23:01:58.991Z,25.40
2022-10-04T23:07:06.897Z,20.60
2022-10-04T23:12:14.716Z,25.83
2022-10-04T23:17:25.400Z,26.77
2022-10-04T23:22:33.852Z,21.77
2022-10-04T23:27:41.945Z,29.30
2022-10-04T23:32:52.242Z,31.03
2022-10-04T23:38:00.066Z,31.60
2022-10-04T23:43:09.689Z,35.87
2022-10-04T23:48:20.676Z,34.00
2022-10-04T23:53:31.238Z,27.13
2022-10-04T23:58:40.069Z,30.27
